Time,TemperatureF,DewpointF,PressureIn,WindDirection,WindDirectionDegrees,WindSpeedMPH,WindSpeedGustMPH,Humidity,HourlyPrecipIn,Conditions,Clouds,dailyrainin,SolarRadiationWatts/m^2,SoftwareType,DateUTC
2013-01-01 00:00:00,29.0,28.0,30.21,NE,42,3.0,-999.0,98,0.00,,,-99.99,-2.000000,,2013-01-01 08:00:00,
2013-01-01 00:22:00,29.0,28.0,30.21,NE,42,3.0,-999.0,98,0.00,,,-99.99,-2.000000,,2013-01-01 08:22:00,
2013-01-01 00:32:00,29.0,28.0,30.21,NE,42,3.0,-999.0,98,0.00,,,-99.99,-2.000000,,2013-01-01 08:32:00,
2013-01-01 00:42:00,29.0,28.0,30.21,NE,42,3.0,-999.0,98,0.00,,,-99.99,-2.000000,,2013-01-01 08:42:00,
2013-01-01 00:53:00,29.0,28.0,30.21,NE,42,3.0,-999.0,98,0.00,,,-99.99,-2.000000,,2013-01-01 08:53:00,
2013-01-01 01:00:00,30.0,29.0,30.22,North,0,4.0,-999.0,95,0.00,,,-99.99,-2.100000,,2013-01-01 09:00:00,
2013-01-01 01:22:00,30.0,29.0,30.22,North,0,4.0,-999.0,95,0.00,,,-99.99,-2.100000,,2013-01-01 09:22:00,
2013-01-01 01:32:00,30.0,29.0,30.22,North,0,4.0,-999.0,95,0.00,,,-99.99,-2.100000,,2013-01-01 09:32:00,
2013-01-01 01:42:00,30.0,29.0,30.22,North,0,4.0,-999.0,95,0.00,,,-99.99,-2.100000,,2013-01-01 09:42:00,
2013-01-01 01:52:00,30.0,29.0,30.22,North,0,4.0,-999.0,95,0.00,,,-99.99,-2.100000,,2013-01-01 09:52:00,
2013-01-01 02:00:00,31.0,29.0,30.22,North,354,5.0,-999.0,93,0.00,,,-99.99,-1.900000,,2013-01-01 10:00:00,
2013-01-01 02:22:00,31.0,29.0,30.22,North,354,5.0,-999.0,93,0.00,,,-99.99,-1.900000,,2013-01-01 10:22:00,
2013-01-01 02:33:00,31.0,29.0,30.22,North,354,5.0,-999.0,93,0.00,,,-99.99,-1.900000,,2013-01-01 10:33:00,
2013-01-01 02:42:00,31.0,29.0,30.22,North,354,5.0,-999.0,93,0.00,,,-99.99,-1.900000,,2013-01-01 10:42:00,
2013-01-01 02:52:00,31.0,29.0,30.22,North,354,5.0,-999.0,93,0.00,,,-99.99,-1.900000,,2013-01-01 10:52:00,
2013-01-01 03:00:00,32.0,29.0,30.24,North,1,3.0,-999.0,89,0.00,,,-99.99,-1.300000,,2013-01-01 11:00:00,
2013-01-01 03:23:00,32.0,29.0,30.24,North,1,3.0,-999.0,89,0.00,,,-99.99,-1.300000,,2013-01-01 11:23:00,
2013-01-01 03:33:00,32.0,29.0,30.24,North,1,3.0,-999.0,89,0.00,,,-99.99,-1.300000,,2013-01-01 11:33:00,
2013-01-01 03:43:00,32.0,29.0,30.24,North,1,3.0,-999.0,89,0.00,,,-99.99,-1.300000,,2013-01-01 11:43:00,
2013-01-01 03:53:00,32.0,29.0,30.24,North,1,3.0,-999.0,89,0.00,,,-99.99,-1.300000,,2013-01-01 11:53:00,
2013-01-01 05:00:00,30.0,29.0,30.22,North,6,2.0,-999.0,95,0.00,,,-99.99,-2.100000,,2013-01-01 13:00:00,
2013-01-01 05:22:00,30.0,29.0,30.22,North,6,2.0,-999.0,95,0.00,,,-99.99,-2.100000,,2013-01-01 13:22:00,
2013-01-01 05:33:00,30.0,29.0,30.22,North,6,2.0,-999.0,95,0.00,,,-99.99,-2.100000,,2013-01-01 13:33:00,
2013-01-01 05:43:00,30.0,29.0,30.22,North,6,2.0,-999.0,95,0.00,,,-99.99,-2.100000,,2013-01-01 13:43:00,
2013-01-01 05:52:00,30.0,29.0,30.22,North,6,2.0,-999.0,95,0.00,,,-99.99,-2.100000,,2013-01-01 13:52:00,
2013-01-01 06:00:00,30.0,28.0,30.22,NNW,335,1.0,-999.0,92,0.00,,,-99.99,-1.700000,,2013-01-01 14:00:00,
2013-01-01 06:22:00,30.0,28.0,30.22,NNW,335,1.0,-999.0,92,0.00,,,-99.99,-1.700000,,2013-01-01 14:22:00,
2013-01-01 06:33:00,30.0,28.0,30.22,NNW,335,1.0,-999.0,92,0.00,,,-99.99,-1.700000,,2013-01-01 14:33:00,
2013-01-01 06:43:00,30.0,28.0,30.22,NNW,335,1.0,-999.0,92,0.00,,,-99.99,-1.700000,,2013-01-01 14:43:00,
2013-01-01 06:53:00,30.0,28.0,30.22,NNW,335,1.0,-999.0,92,0.00,,,-99.99,-1.700000,,2013-01-01 14:53:00,
2013-01-01 07:00:00,30.0,28.0,30.22,North,352,3.0,-999.0,92,0.00,,,-99.99,-2.500000,,2013-01-01 15:00:00,
2013-01-01 07:22:00,30.0,28.0,30.22,North,352,3.0,-999.0,92,0.00,,,-99.99,-2.500000,,2013-01-01 15:22:00,
2013-01-01 07:33:00,30.0,28.0,30.22,North,352,3.0,-999.0,92,0.00,,,-99.99,-2.500000,,2013-01-01 15:33:00,
2013-01-01 07:43:00,30.0,28.0,30.22,North,352,3.0,-999.0,92,0.00,,,-99.99,-2.500000,,2013-01-01 15:43:00,
2013-01-01 07:53:00,30.0,28.0,30.22,North,352,3.0,-999.0,92,0.00,,,-99.99,-2.500000,,2013-01-01 15:53:00,
2013-01-01 08:00:00,29.0,28.0,30.21,NNW,346,1.0,-999.0,94,0.00,,,-99.99,2.800000,,2013-01-01 16:00:00,
2013-01-01 08:22:00,29.0,28.0,30.21,NNW,346,1.0,-999.0,94,0.00,,,-99.99,2.800000,,2013-01-01 16:22:00,
2013-01-01 08:33:00,29.0,28.0,30.21,NNW,346,1.0,-999.0,94,0.00,,,-99.99,2.800000,,2013-01-01 16:33:00,
2013-01-01 08:43:00,29.0,28.0,30.21,NNW,346,1.0,-999.0,94,0.00,,,-99.99,2.800000,,2013-01-01 16:43:00,
2013-01-01 08:53:00,29.0,28.0,30.21,NNW,346,1.0,-999.0,94,0.00,,,-99.99,2.800000,,2013-01-01 16:53:00,
2013-01-01 09:00:00,32.0,27.0,30.21,NNW,335,3.0,-999.0,82,0.00,,,-99.99,23.200001,,2013-01-01 17:00:00,
2013-01-01 09:23:00,32.0,27.0,30.21,NNW,335,3.0,-999.0,82,0.00,,,-99.99,23.200001,,2013-01-01 17:23:00,
2013-01-01 09:33:00,32.0,27.0,30.21,NNW,335,3.0,-999.0,82,0.00,,,-99.99,23.200001,,2013-01-01 17:33:00,
2013-01-01 09:43:00,32.0,27.0,30.21,NNW,335,3.0,-999.0,82,0.00,,,-99.99,23.200001,,2013-01-01 17:43:00,
2013-01-01 09:53:00,32.0,27.0,30.21,NNW,335,3.0,-999.0,82,0.00,,,-99.99,23.200001,,2013-01-01 17:53:00,
2013-01-01 10:00:00,38.0,30.0,30.23,NNW,331,1.0,-999.0,71,0.00,,,-99.99,301.799988,,2013-01-01 18:00:00,
2013-01-01 10:23:00,38.0,30.0,30.23,NNW,331,1.0,-999.0,71,0.00,,,-99.99,301.799988,,2013-01-01 18:23:00,
2013-01-01 10:33:00,38.0,30.0,30.23,NNW,331,1.0,-999.0,71,0.00,,,-99.99,301.799988,,2013-01-01 18:33:00,
2013-01-01 10:43:00,38.0,30.0,30.23,NNW,331,1.0,-999.0,71,0.00,,,-99.99,301.799988,,2013-01-01 18:43:00,
2013-01-01 10:53:00,38.0,30.0,30.23,NNW,331,1.0,-999.0,71,0.00,,,-99.99,301.799988,,2013-01-01 18:53:00,
2013-01-01 11:00:00,45.0,31.0,30.24,NW,313,0.0,-999.0,59,0.00,,,-99.99,413.000000,,2013-01-01 19:00:00,
2013-01-01 11:22:00,45.0,31.0,30.24,NW,313,0.0,-999.0,59,0.00,,,-99.99,413.000000,,2013-01-01 19:22:00,
2013-01-01 11:33:00,45.0,31.0,30.24,NW,313,0.0,-999.0,59,0.00,,,-99.99,413.000000,,2013-01-01 19:33:00,
2013-01-01 11:43:00,45.0,31.0,30.24,NW,313,0.0,-999.0,59,0.00,,,-99.99,413.000000,,2013-01-01 19:43:00,
2013-01-01 11:52:00,45.0,31.0,30.24,NW,313,0.0,-999.0,59,0.00,,,-99.99,413.000000,,2013-01-01 19:52:00,
2013-01-01 12:00:00,46.0,31.0,30.23,ENE,67,2.0,-999.0,54,0.00,,,-99.99,476.899994,,2013-01-01 20:00:00,
2013-01-01 12:23:00,46.0,31.0,30.23,ENE,67,2.0,-999.0,54,0.00,,,-99.99,476.899994,,2013-01-01 20:23:00,
2013-01-01 12:32:00,46.0,31.0,30.23,ENE,67,2.0,-999.0,54,0.00,,,-99.99,476.899994,,2013-01-01 20:32:00,
2013-01-01 12:42:00,46.0,31.0,30.23,ENE,67,2.0,-999.0,54,0.00,,,-99.99,476.899994,,2013-01-01 20:42:00,
2013-01-01 12:53:00,46.0,31.0,30.23,ENE,67,2.0,-999.0,54,0.00,,,-99.99,476.899994,,2013-01-01 20:53:00,
2013-01-01 13:00:00,47.0,31.0,30.22,WNW,294,1.0,-999.0,53,0.00,,,-99.99,429.000000,,2013-01-01 21:00:00,
2013-01-01 13:22:00,47.0,31.0,30.22,WNW,294,1.0,-999.0,53,0.00,,,-99.99,429.000000,,2013-01-01 21:22:00,
2013-01-01 13:33:00,47.0,31.0,30.22,WNW,294,1.0,-999.0,53,0.00,,,-99.99,429.000000,,2013-01-01 21:33:00,
2013-01-01 13:42:00,47.0,31.0,30.22,WNW,294,1.0,-999.0,53,0.00,,,-99.99,429.000000,,2013-01-01 21:42:00,
2013-01-01 13:52:00,47.0,31.0,30.22,WNW,294,1.0,-999.0,53,0.00,,,-99.99,429.000000,,2013-01-01 21:52:00,
2013-01-01 15:00:00,46.0,31.0,30.21,SW,230,2.0,-999.0,54,0.00,,,-99.99,111.000000,,2013-01-01 23:00:00,
2013-01-01 15:22:00,46.0,31.0,30.21,SW,230,2.0,-999.0,54,0.00,,,-99.99,111.000000,,2013-01-01 23:22:00,
2013-01-01 15:32:00,46.0,31.0,30.21,SW,230,2.0,-999.0,54,0.00,,,-99.99,111.000000,,2013-01-01 23:32:00,
2013-01-01 15:42:00,46.0,31.0,30.21,SW,230,2.0,-999.0,54,0.00,,,-99.99,111.000000,,2013-01-01 23:42:00,
2013-01-01 15:52:00,46.0,31.0,30.21,SW,230,2.0,-999.0,54,0.00,,,-99.99,111.000000,,2013-01-01 23:52:00,
2013-01-01 16:00:00,42.0,33.0,30.19,South,185,2.0,-999.0,69,0.00,,,-99.99,34.900002,,2013-01-02 00:00:00,
2013-01-01 16:22:00,42.0,33.0,30.19,South,185,2.0,-999.0,69,0.00,,,-99.99,34.900002,,2013-01-02 00:22:00,
2013-01-01 16:32:00,42.0,33.0,30.19,South,185,2.0,-999.0,69,0.00,,,-99.99,34.900002,,2013-01-02 00:32:00,
2013-01-01 16:43:00,42.0,33.0,30.19,South,185,2.0,-999.0,69,0.00,,,-99.99,34.900002,,2013-01-02 00:43:00,
2013-01-01 16:52:00,42.0,33.0,30.19,South,185,2.0,-999.0,69,0.00,,,-99.99,34.900002,,2013-01-02 00:52:00,
2013-01-01 17:00:00,38.0,34.0,30.19,South,178,1.0,-999.0,84,0.00,,,-99.99,10.900000,,2013-01-02 01:00:00,
2013-01-01 17:22:00,38.0,34.0,30.19,South,178,1.0,-999.0,84,0.00,,,-99.99,10.900000,,2013-01-02 01:22:00,
2013-01-01 17:32:00,38.0,34.0,30.19,South,178,1.0,-999.0,84,0.00,,,-99.99,10.900000,,2013-01-02 01:32:00,
2013-01-01 17:42:00,38.0,34.0,30.19,South,178,1.0,-999.0,84,0.00,,,-99.99,10.900000,,2013-01-02 01:42:00,
2013-01-01 17:52:00,38.0,34.0,30.19,South,178,1.0,-999.0,84,0.00,,,-99.99,10.900000,,2013-01-02 01:52:00,
2013-01-01 18:22:00,34.0,32.0,30.19,SSW,194,0.0,-999.0,92,0.00,,,-99.99,-2.200000,,2013-01-02 02:22:00,
2013-01-01 18:32:00,34.0,32.0,30.19,SSW,194,0.0,-999.0,92,0.00,,,-99.99,-2.200000,,2013-01-02 02:32:00,
2013-01-01 19:22:00,31.0,30.0,30.20,SW,230,0.0,-999.0,94,0.00,,,-99.99,-2.100000,,2013-01-02 03:22:00,
2013-01-01 19:32:00,31.0,30.0,30.20,SW,230,0.0,-999.0,94,0.00,,,-99.99,-2.100000,,2013-01-02 03:32:00,
2013-01-01 20:22:00,30.0,29.0,30.20,East,101,1.0,-999.0,96,0.00,,,-99.99,-2.000000,,2013-01-02 04:22:00,
2013-01-01 20:32:00,30.0,29.0,30.20,East,101,1.0,-999.0,96,0.00,,,-99.99,-2.000000,,2013-01-02 04:32:00,
2013-01-01 21:22:00,28.0,28.0,30.23,SE,145,1.0,-999.0,97,0.00,,,-99.99,-2.300000,,2013-01-02 05:22:00,
2013-01-01 21:33:00,28.0,28.0,30.23,SE,145,1.0,-999.0,97,0.00,,,-99.99,-2.300000,,2013-01-02 05:33:00,
2013-01-01 22:22:00,28.0,27.0,30.23,North,0,0.0,-999.0,97,0.00,,,-99.99,-2.000000,,2013-01-02 06:22:00,
2013-01-01 22:32:00,28.0,27.0,30.23,North,0,0.0,-999.0,97,0.00,,,-99.99,-2.000000,,2013-01-02 06:32:00,